sensor_id;sensor_type;location;lat;lon;timestamp;pressure;altitude;pressure_sealevel;temperature;humidity
10700;BME280;5401;41.986;21.452;2022-08-11T00:02:27;98399.22;;;27.13;42.40
10700;BME280;5401;41.986;21.452;2022-08-11T00:05:02;98400.03;;;27.13;41.82
10700;BME280;5401;41.986;21.452;2022-08-11T00:07:31;98398.72;;;27.11;41.99
10700;BME280;5401;41.986;21.452;2022-08-11T00:10:01;98397.88;;;27.10;41.88
10700;BME280;5401;41.986;21.452;2022-08-11T00:12:29;98394.34;;;27.10;41.99
10700;BME280;5401;41.986;21.452;2022-08-11T00:14:59;98398.22;;;27.09;42.16
10700;BME280;5401;41.986;21.452;2022-08-11T00:17:29;98395.97;;;27.11;41.71
10700;BME280;5401;41.986;21.452;2022-08-11T00:20:04;98399.03;;;27.09;42.08
10700;BME280;5401;41.986;21.452;2022-08-11T00:22:35;98402.75;;;27.05;42.04
10700;BME280;5401;41.986;21.452;2022-08-11T00:25:09;98403.03;;;27.03;41.95
10700;BME280;5401;41.986;21.452;2022-08-11T00:27:39;98404.81;;;26.99;42.25
10700;BME280;5401;41.986;21.452;2022-08-11T00:30:09;98405.59;;;27.00;42.08
10700;BME280;5401;41.986;21.452;2022-08-11T00:32:38;98394.91;;;26.98;41.73
10700;BME280;5401;41.986;21.452;2022-08-11T00:35:08;98392.81;;;26.95;42.46
10700;BME280;5401;41.986;21.452;2022-08-11T00:37:37;98395.72;;;26.91;41.98
10700;BME280;5401;41.986;21.452;2022-08-11T00:40:15;98404.44;;;26.92;41.90
10700;BME280;5401;41.986;21.452;2022-08-11T00:42:53;98402.81;;;26.91;42.36
10700;BME280;5401;41.986;21.452;2022-08-11T00:45:23;98405.88;;;26.90;42.35
10700;BME280;5401;41.986;21.452;2022-08-11T00:48:02;98396.63;;;26.86;42.04
10700;BME280;5401;41.986;21.452;2022-08-11T00:50:40;98401.31;;;26.86;41.98
10700;BME280;5401;41.986;21.452;2022-08-11T00:53:36;98406.03;;;26.85;42.33
10700;BME280;5401;41.986;21.452;2022-08-11T00:56:16;98403.28;;;26.85;42.13
10700;BME280;5401;41.986;21.452;2022-08-11T00:59:25;98398.56;;;26.86;41.78
10700;BME280;5401;41.986;21.452;2022-08-11T01:02:11;98409.88;;;26.84;42.11
10700;BME280;5401;41.986;21.452;2022-08-11T01:11:28;98396.78;;;26.81;41.82
10700;BME280;5401;41.986;21.452;2022-08-11T01:30:48;98400.56;;;26.72;42.01
10700;BME280;5401;41.986;21.452;2022-08-11T01:37:02;98397.66;;;26.68;42.05
10700;BME280;5401;41.986;21.452;2022-08-11T01:39:58;98391.00;;;26.69;42.09
10700;BME280;5401;41.986;21.452;2022-08-11T01:46:01;98390.03;;;26.65;41.79
10700;BME280;5401;41.986;21.452;2022-08-11T01:48:38;98398.91;;;26.62;42.17
10700;BME280;5401;41.986;21.452;2022-08-11T01:51:16;98396.97;;;26.63;42.15
10700;BME280;5401;41.986;21.452;2022-08-11T01:53:53;98400.50;;;26.63;42.16
10700;BME280;5401;41.986;21.452;2022-08-11T01:56:31;98396.72;;;26.51;42.28
10700;BME280;5401;41.986;21.452;2022-08-11T01:59:09;98395.59;;;26.17;42.85
10700;BME280;5401;41.986;21.452;2022-08-11T02:01:48;98389.13;;;25.78;43.70
10700;BME280;5401;41.986;21.452;2022-08-11T02:04:30;98394.13;;;25.49;44.20
10700;BME280;5401;41.986;21.452;2022-08-11T02:07:09;98398.91;;;25.44;44.35
10700;BME280;5401;41.986;21.452;2022-08-11T02:09:52;98392.09;;;25.42;44.78
10700;BME280;5401;41.986;21.452;2022-08-11T02:12:40;98392.69;;;25.52;44.61
10700;BME280;5401;41.986;21.452;2022-08-11T02:15:13;98390.56;;;25.62;44.76
10700;BME280;5401;41.986;21.452;2022-08-11T02:17:52;98396.19;;;25.57;44.70
10700;BME280;5401;41.986;21.452;2022-08-11T02:20:26;98392.69;;;25.52;45.12
10700;BME280;5401;41.986;21.452;2022-08-11T02:23:22;98395.69;;;25.55;45.00
10700;BME280;5401;41.986;21.452;2022-08-11T02:26:16;98399.78;;;25.53;45.42
10700;BME280;5401;41.986;21.452;2022-08-11T02:28:54;98402.22;;;25.54;45.31
10700;BME280;5401;41.986;21.452;2022-08-11T02:31:33;98401.44;;;25.41;45.27
10700;BME280;5401;41.986;21.452;2022-08-11T02:34:30;98400.63;;;25.13;46.07
10700;BME280;5401;41.986;21.452;2022-08-11T02:37:09;98405.97;;;24.92;46.60
10700;BME280;5401;41.986;21.452;2022-08-11T02:39:47;98399.13;;;24.76;46.90
10700;BME280;5401;41.986;21.452;2022-08-11T02:42:29;98391.00;;;24.71;47.23
10700;BME280;5401;41.986;21.452;2022-08-11T02:45:12;98393.06;;;24.79;47.23
10700;BME280;5401;41.986;21.452;2022-08-11T02:47:59;98395.38;;;24.85;47.33
10700;BME280;5401;41.986;21.452;2022-08-11T02:50:55;98397.47;;;24.62;47.67
10700;BME280;5401;41.986;21.452;2022-08-11T02:53:38;98406.75;;;24.47;47.93
10700;BME280;5401;41.986;21.452;2022-08-11T02:56:15;98403.88;;;24.39;48.32
10700;BME280;5401;41.986;21.452;2022-08-11T02:58:55;98405.69;;;24.30;48.54
10700;BME280;5401;41.986;21.452;2022-08-11T03:01:47;98401.94;;;24.21;48.39
10700;BME280;5401;41.986;21.452;2022-08-11T03:04:24;98396.28;;;24.18;48.53
10700;BME280;5401;41.986;21.452;2022-08-11T03:07:00;98405.59;;;24.17;48.88
10700;BME280;5401;41.986;21.452;2022-08-11T03:09:43;98399.50;;;24.20;48.46
10700;BME280;5401;41.986;21.452;2022-08-11T03:12:17;98409.22;;;24.31;48.72
10700;BME280;5401;41.986;21.452;2022-08-11T03:15:11;98414.16;;;24.47;48.34
10700;BME280;5401;41.986;21.452;2022-08-11T03:18:11;98414.28;;;24.55;48.51
10700;BME280;5401;41.986;21.452;2022-08-11T03:20:48;98403.22;;;24.47;48.74
10700;BME280;5401;41.986;21.452;2022-08-11T03:23:24;98405.53;;;24.40;48.66
10700;BME280;5401;41.986;21.452;2022-08-11T03:26:01;98417.28;;;24.40;48.89
10700;BME280;5401;41.986;21.452;2022-08-11T03:28:35;98416.09;;;24.46;48.87
10700;BME280;5401;41.986;21.452;2022-08-11T03:31:20;98421.34;;;24.43;48.86
10700;BME280;5401;41.986;21.452;2022-08-11T03:33:53;98419.69;;;24.42;49.02
10700;BME280;5401;41.986;21.452;2022-08-11T03:36:54;98411.34;;;24.34;49.14
10700;BME280;5401;41.986;21.452;2022-08-11T03:39:47;98414.09;;;24.34;49.40
10700;BME280;5401;41.986;21.452;2022-08-11T03:42:23;98415.34;;;24.41;49.39
10700;BME280;5401;41.986;21.452;2022-08-11T03:45:02;98405.94;;;24.47;48.99
10700;BME280;5401;41.986;21.452;2022-08-11T03:47:59;98408.75;;;24.73;49.05
10700;BME280;5401;41.986;21.452;2022-08-11T03:50:46;98406.63;;;25.15;48.28
10700;BME280;5401;41.986;21.452;2022-08-11T03:53:27;98404.28;;;25.36;48.18
10700;BME280;5401;41.986;21.452;2022-08-11T03:59:27;98401.06;;;25.95;46.79
10700;BME280;5401;41.986;21.452;2022-08-11T04:02:17;98403.63;;;25.92;46.73
10700;BME280;5401;41.986;21.452;2022-08-11T04:08:37;98407.31;;;25.74;47.13
10700;BME280;5401;41.986;21.452;2022-08-11T04:14:18;98413.22;;;25.68;47.52
10700;BME280;5401;41.986;21.452;2022-08-11T04:24:02;98417.78;;;25.72;47.17
10700;BME280;5401;41.986;21.452;2022-08-11T04:26:50;98414.75;;;25.74;47.29
10700;BME280;5401;41.986;21.452;2022-08-11T04:29:34;98422.66;;;25.75;47.53
10700;BME280;5401;41.986;21.452;2022-08-11T04:32:22;98414.53;;;25.70;46.89
10700;BME280;5401;41.986;21.452;2022-08-11T04:35:10;98408.47;;;25.60;47.33
10700;BME280;5401;41.986;21.452;2022-08-11T04:38:23;98412.09;;;25.29;47.63
10700;BME280;5401;41.986;21.452;2022-08-11T04:41:30;98420.19;;;24.94;48.26
10700;BME280;5401;41.986;21.452;2022-08-11T04:44:44;98423.97;;;24.79;48.48
10700;BME280;5401;41.986;21.452;2022-08-11T04:47:43;98419.72;;;24.73;48.80
10700;BME280;5401;41.986;21.452;2022-08-11T04:50:40;98431.06;;;24.67;48.81
10700;BME280;5401;41.986;21.452;2022-08-11T04:53:44;98423.94;;;24.66;49.12
10700;BME280;5401;41.986;21.452;2022-08-11T04:56:36;98432.59;;;24.73;48.95
10700;BME280;5401;41.986;21.452;2022-08-11T04:59:50;98432.94;;;24.85;48.69
10700;BME280;5401;41.986;21.452;2022-08-11T05:03:02;98437.69;;;25.11;48.11
10700;BME280;5401;41.986;21.452;2022-08-11T05:09:03;98435.25;;;25.63;47.56
10700;BME280;5401;41.986;21.452;2022-08-11T05:11:53;98443.06;;;25.69;47.41
10700;BME280;5401;41.986;21.452;2022-08-11T05:14:38;98444.22;;;25.68;46.94
10700;BME280;5401;41.986;21.452;2022-08-11T05:17:35;98438.09;;;25.71;47.20
10700;BME280;5401;41.986;21.452;2022-08-11T05:20:24;98442.06;;;25.79;46.83
10700;BME280;5401;41.986;21.452;2022-08-11T05:23:11;98446.03;;;25.86;47.21
10700;BME280;5401;41.986;21.452;2022-08-11T05:26:00;98448.94;;;25.89;46.87
10700;BME280;5401;41.986;21.452;2022-08-11T05:28:52;98447.03;;;25.90;46.82
10700;BME280;5401;41.986;21.452;2022-08-11T05:31:42;98451.88;;;26.06;46.81
10700;BME280;5401;41.986;21.452;2022-08-11T05:34:41;98442.81;;;26.19;46.77
10700;BME280;5401;41.986;21.452;2022-08-11T05:37:32;98446.53;;;26.36;46.56
10700;BME280;5401;41.986;21.452;2022-08-11T05:40:06;98443.91;;;26.53;46.16
10700;BME280;5401;41.986;21.452;2022-08-11T05:42:57;98438.16;;;26.63;45.96
10700;BME280;5401;41.986;21.452;2022-08-11T05:45:43;98437.53;;;26.66;45.97
10700;BME280;5401;41.986;21.452;2022-08-11T05:48:35;98438.00;;;26.81;45.91
10700;BME280;5401;41.986;21.452;2022-08-11T05:51:21;98433.34;;;26.90;45.70
10700;BME280;5401;41.986;21.452;2022-08-11T05:54:17;98432.75;;;26.93;45.59
10700;BME280;5401;41.986;21.452;2022-08-11T05:57:02;98436.34;;;27.02;45.48
10700;BME280;5401;41.986;21.452;2022-08-11T05:59:32;98427.47;;;27.05;45.09
10700;BME280;5401;41.986;21.452;2022-08-11T06:02:01;98429.88;;;27.06;45.59
10700;BME280;5401;41.986;21.452;2022-08-11T06:04:30;98427.50;;;27.13;45.36
10700;BME280;5401;41.986;21.452;2022-08-11T06:07:00;98433.66;;;27.19;45.11
10700;BME280;5401;41.986;21.452;2022-08-11T06:09:31;98431.31;;;27.34;44.96
10700;BME280;5401;41.986;21.452;2022-08-11T06:12:02;98434.16;;;27.51;44.88
10700;BME280;5401;41.986;21.452;2022-08-11T06:14:33;98427.91;;;27.67;44.41
10700;BME280;5401;41.986;21.452;2022-08-11T06:17:03;98434.25;;;27.84;43.82
10700;BME280;5401;41.986;21.452;2022-08-11T06:19:33;98429.31;;;28.03;43.53
10700;BME280;5401;41.986;21.452;2022-08-11T06:22:03;98431.13;;;28.24;43.32
10700;BME280;5401;41.986;21.452;2022-08-11T06:24:32;98431.28;;;28.44;42.63
10700;BME280;5401;41.986;21.452;2022-08-11T06:27:02;98426.09;;;28.68;42.29
10700;BME280;5401;41.986;21.452;2022-08-11T06:29:35;98425.56;;;28.91;41.90
10700;BME280;5401;41.986;21.452;2022-08-11T06:32:07;98422.91;;;29.11;41.59
10700;BME280;5401;41.986;21.452;2022-08-11T06:38:09;98427.16;;;29.54;40.94
10700;BME280;5401;41.986;21.452;2022-08-11T06:40:46;98421.56;;;29.71;40.78
10700;BME280;5401;41.986;21.452;2022-08-11T06:43:46;98432.19;;;29.89;40.25
10700;BME280;5401;41.986;21.452;2022-08-11T06:46:24;98432.56;;;30.08;40.35
10700;BME280;5401;41.986;21.452;2022-08-11T06:48:53;98441.38;;;30.30;39.59
10700;BME280;5401;41.986;21.452;2022-08-11T06:51:22;98435.69;;;30.47;39.31
10700;BME280;5401;41.986;21.452;2022-08-11T06:53:51;98433.94;;;30.63;39.17
10700;BME280;5401;41.986;21.452;2022-08-11T06:56:23;98435.75;;;30.79;38.88
10700;BME280;5401;41.986;21.452;2022-08-11T06:59:09;98430.78;;;31.05;38.88
10700;BME280;5401;41.986;21.452;2022-08-11T07:02:04;98434.75;;;31.27;38.25
10700;BME280;5401;41.986;21.452;2022-08-11T07:04:40;98437.09;;;31.37;37.75
10700;BME280;5401;41.986;21.452;2022-08-11T07:07:36;98435.50;;;31.48;37.60
10700;BME280;5401;41.986;21.452;2022-08-11T07:10:42;98442.31;;;31.63;37.17
10700;BME280;5401;41.986;21.452;2022-08-11T07:13:37;98436.69;;;31.83;37.73
10700;BME280;5401;41.986;21.452;2022-08-11T07:16:27;98435.50;;;32.07;36.60
10700;BME280;5401;41.986;21.452;2022-08-11T07:19:00;98430.66;;;32.40;36.22
10700;BME280;5401;41.986;21.452;2022-08-11T07:21:47;98428.19;;;32.77;35.99
10700;BME280;5401;41.986;21.452;2022-08-11T07:24:37;98440.84;;;33.17;35.67
10700;BME280;5401;41.986;21.452;2022-08-11T07:27:24;98432.50;;;33.60;35.33
10700;BME280;5401;41.986;21.452;2022-08-11T07:30:11;98434.38;;;34.02;34.82
10700;BME280;5401;41.986;21.452;2022-08-11T07:32:45;98427.13;;;34.31;34.25
10700;BME280;5401;41.986;21.452;2022-08-11T07:35:21;98430.13;;;34.76;33.91
10700;BME280;5401;41.986;21.452;2022-08-11T07:37:56;98424.44;;;35.28;33.10
10700;BME280;5401;41.986;21.452;2022-08-11T07:40:24;98433.69;;;35.77;32.62
10700;BME280;5401;41.986;21.452;2022-08-11T07:42:54;98419.06;;;36.09;32.87
10700;BME280;5401;41.986;21.452;2022-08-11T07:45:23;98422.97;;;36.56;32.18
10700;BME280;5401;41.986;21.452;2022-08-11T07:48:11;98419.38;;;36.84;31.65
10700;BME280;5401;41.986;21.452;2022-08-11T07:50:58;98419.97;;;37.00;31.30
10700;BME280;5401;41.986;21.452;2022-08-11T07:53:44;98411.78;;;37.14;31.12
10700;BME280;5401;41.986;21.452;2022-08-11T07:56:12;98406.66;;;37.19;30.74
10700;BME280;5401;41.986;21.452;2022-08-11T07:58:41;98403.81;;;37.16;31.02
10700;BME280;5401;41.986;21.452;2022-08-11T08:01:27;98407.09;;;37.25;31.03
10700;BME280;5401;41.986;21.452;2022-08-11T08:04:15;98410.19;;;37.16;30.39
10700;BME280;5401;41.986;21.452;2022-08-11T08:07:03;98405.31;;;37.07;30.40
10700;BME280;5401;41.986;21.452;2022-08-11T08:09:49;98406.13;;;37.07;30.16
10700;BME280;5401;41.986;21.452;2022-08-11T08:12:34;98403.06;;;37.19;30.29
10700;BME280;5401;41.986;21.452;2022-08-11T08:15:21;98400.09;;;37.41;30.31
10700;BME280;5401;41.986;21.452;2022-08-11T08:18:07;98408.75;;;37.65;29.62
10700;BME280;5401;41.986;21.452;2022-08-11T08:20:39;98404.09;;;37.86;29.57
10700;BME280;5401;41.986;21.452;2022-08-11T08:23:10;98406.66;;;38.05;28.96
10700;BME280;5401;41.986;21.452;2022-08-11T08:25:39;98398.16;;;37.91;29.29
10700;BME280;5401;41.986;21.452;2022-08-11T08:28:11;98400.94;;;37.88;29.03
10700;BME280;5401;41.986;21.452;2022-08-11T08:30:42;98399.94;;;37.63;29.01
10700;BME280;5401;41.986;21.452;2022-08-11T08:33:20;98394.44;;;37.34;29.07
10700;BME280;5401;41.986;21.452;2022-08-11T08:35:51;98393.25;;;37.39;28.67
10700;BME280;5401;41.986;21.452;2022-08-11T08:38:39;98401.69;;;37.42;28.53
10700;BME280;5401;41.986;21.452;2022-08-11T08:41:08;98399.81;;;37.49;28.70
10700;BME280;5401;41.986;21.452;2022-08-11T08:43:37;98398.31;;;37.62;28.51
10700;BME280;5401;41.986;21.452;2022-08-11T08:46:08;98394.44;;;37.74;28.06
10700;BME280;5401;41.986;21.452;2022-08-11T08:48:36;98392.84;;;37.76;28.17
10700;BME280;5401;41.986;21.452;2022-08-11T08:51:09;98388.19;;;37.90;28.38
10700;BME280;5401;41.986;21.452;2022-08-11T08:54:00;98383.03;;;37.99;28.24
10700;BME280;5401;41.986;21.452;2022-08-11T08:56:30;98386.81;;;37.71;27.63
10700;BME280;5401;41.986;21.452;2022-08-11T08:59:00;98384.09;;;37.38;27.79
10700;BME280;5401;41.986;21.452;2022-08-11T09:01:31;98377.88;;;37.15;28.00
10700;BME280;5401;41.986;21.452;2022-08-11T09:04:02;98379.47;;;37.16;28.27
10700;BME280;5401;41.986;21.452;2022-08-11T09:06:33;98373.22;;;37.30;27.69
10700;BME280;5401;41.986;21.452;2022-08-11T09:09:06;98380.88;;;37.36;28.30
10700;BME280;5401;41.986;21.452;2022-08-11T09:11:36;98380.00;;;37.29;27.56
10700;BME280;5401;41.986;21.452;2022-08-11T09:14:23;98373.88;;;37.13;27.79
10700;BME280;5401;41.986;21.452;2022-08-11T09:17:11;98376.72;;;37.20;27.80
10700;BME280;5401;41.986;21.452;2022-08-11T09:19:39;98374.81;;;37.31;27.84
10700;BME280;5401;41.986;21.452;2022-08-11T09:22:08;98375.59;;;37.28;27.60
10700;BME280;5401;41.986;21.452;2022-08-11T09:24:54;98374.66;;;37.13;27.48
10700;BME280;5401;41.986;21.452;2022-08-11T09:27:40;98369.94;;;37.17;27.91
10700;BME280;5401;41.986;21.452;2022-08-11T09:32:27;98361.81;;;37.06;27.49
10700;BME280;5401;41.986;21.452;2022-08-11T09:34:56;98364.09;;;37.00;28.10
10700;BME280;5401;41.986;21.452;2022-08-11T09:37:24;98356.41;;;36.90;27.88
10700;BME280;5401;41.986;21.452;2022-08-11T09:40:10;98349.50;;;36.77;28.36
10700;BME280;5401;41.986;21.452;2022-08-11T09:43:01;98357.94;;;36.84;27.80
10700;BME280;5401;41.986;21.452;2022-08-11T09:45:48;98349.03;;;36.72;27.66
10700;BME280;5401;41.986;21.452;2022-08-11T09:48:18;98346.28;;;36.75;27.62
10700;BME280;5401;41.986;21.452;2022-08-11T09:50:48;98345.84;;;37.06;27.55
10700;BME280;5401;41.986;21.452;2022-08-11T09:53:17;98329.94;;;37.49;27.71
10700;BME280;5401;41.986;21.452;2022-08-11T09:55:46;98333.34;;;37.76;27.11
10700;BME280;5401;41.986;21.452;2022-08-11T09:58:15;98330.47;;;37.69;27.19
10700;BME280;5401;41.986;21.452;2022-08-11T10:00:44;98330.06;;;37.67;26.91
10700;BME280;5401;41.986;21.452;2022-08-11T10:03:15;98324.19;;;37.82;27.29
10700;BME280;5401;41.986;21.452;2022-08-11T10:05:47;98319.38;;;37.83;27.30
10700;BME280;5401;41.986;21.452;2022-08-11T10:08:35;98308.91;;;37.66;27.06
10700;BME280;5401;41.986;21.452;2022-08-11T10:11:05;98316.44;;;37.62;26.75
10700;BME280;5401;41.986;21.452;2022-08-11T10:13:38;98320.09;;;37.69;27.06
10700;BME280;5401;41.986;21.452;2022-08-11T10:16:25;98319.66;;;37.67;27.07
10700;BME280;5401;41.986;21.452;2022-08-11T10:18:55;98320.09;;;37.69;27.06
10700;BME280;5401;41.986;21.452;2022-08-11T10:21:28;98317.69;;;37.71;27.06
10700;BME280;5401;41.986;21.452;2022-08-11T10:23:58;98319.78;;;37.78;27.00
10700;BME280;5401;41.986;21.452;2022-08-11T10:26:44;98307.50;;;37.92;26.94
10700;BME280;5401;41.986;21.452;2022-08-11T10:29:26;98313.81;;;37.89;27.07
10700;BME280;5401;41.986;21.452;2022-08-11T10:32:12;98315.91;;;37.96;27.10
10700;BME280;5401;41.986;21.452;2022-08-11T10:34:59;98308.31;;;37.96;27.10
10700;BME280;5401;41.986;21.452;2022-08-11T10:37:29;98312.19;;;37.78;26.88
10700;BME280;5401;41.986;21.452;2022-08-11T10:40:03;98302.19;;;37.81;27.32
10700;BME280;5401;41.986;21.452;2022-08-11T10:42:32;98301.03;;;37.85;26.57
10700;BME280;5401;41.986;21.452;2022-08-11T10:45:18;98296.50;;;37.67;26.48
10700;BME280;5401;41.986;21.452;2022-08-11T10:48:05;98293.53;;;37.46;27.00
10700;BME280;5401;41.986;21.452;2022-08-11T10:50:33;98294.84;;;37.09;27.06
10700;BME280;5401;41.986;21.452;2022-08-11T10:53:20;98289.13;;;37.02;26.72
10700;BME280;5401;41.986;21.452;2022-08-11T10:56:07;98280.81;;;37.06;27.03
10700;BME280;5401;41.986;21.452;2022-08-11T10:58:54;98281.28;;;37.14;27.26
10700;BME280;5401;41.986;21.452;2022-08-11T11:01:25;98274.28;;;37.34;26.84
10700;BME280;5401;41.986;21.452;2022-08-11T11:03:57;98272.38;;;37.45;26.68
10700;BME280;5401;41.986;21.452;2022-08-11T11:06:28;98274.88;;;37.53;26.75
10700;BME280;5401;41.986;21.452;2022-08-11T11:09:03;98262.97;;;37.63;26.83
10700;BME280;5401;41.986;21.452;2022-08-11T11:11:36;98270.59;;;37.73;26.37
10700;BME280;5401;41.986;21.452;2022-08-11T11:14:24;98267.50;;;37.88;26.29
10700;BME280;5401;41.986;21.452;2022-08-11T11:17:08;98263.59;;;38.03;26.74
10700;BME280;5401;41.986;21.452;2022-08-11T11:19:57;98263.59;;;38.03;26.66
10700;BME280;5401;41.986;21.452;2022-08-11T11:22:27;98257.16;;;37.92;26.49
10700;BME280;5401;41.986;21.452;2022-08-11T11:25:17;98259.63;;;38.04;25.92
10700;BME280;5401;41.986;21.452;2022-08-11T11:27:55;98254.03;;;38.11;26.48
10700;BME280;5401;41.986;21.452;2022-08-11T11:30:32;98250.84;;;38.06;26.19
10700;BME280;5401;41.986;21.452;2022-08-11T11:33:07;98249.28;;;38.15;25.86
10700;BME280;5401;41.986;21.452;2022-08-11T11:35:40;98239.72;;;38.26;26.23
10700;BME280;5401;41.986;21.452;2022-08-11T11:38:12;98240.53;;;38.30;25.79
10700;BME280;5401;41.986;21.452;2022-08-11T11:40:42;98234.97;;;38.34;25.72
10700;BME280;5401;41.986;21.452;2022-08-11T11:43:32;98241.41;;;38.41;25.78
10700;BME280;5401;41.986;21.452;2022-08-11T11:46:01;98233.81;;;38.42;25.53
10700;BME280;5401;41.986;21.452;2022-08-11T11:48:30;98225.44;;;38.49;25.53
10700;BME280;5401;41.986;21.452;2022-08-11T11:50:59;98219.00;;;38.41;25.64
10700;BME280;5401;41.986;21.452;2022-08-11T11:53:27;98221.03;;;38.44;25.34
10700;BME280;5401;41.986;21.452;2022-08-11T11:55:57;98215.44;;;38.48;25.65
10700;BME280;5401;41.986;21.452;2022-08-11T11:58:26;98215.81;;;38.50;25.48
10700;BME280;5401;41.986;21.452;2022-08-11T12:01:11;98217.44;;;38.51;25.09
10700;BME280;5401;41.986;21.452;2022-08-11T12:03:43;98207.50;;;38.70;25.03
10700;BME280;5401;41.986;21.452;2022-08-11T12:06:12;98201.13;;;38.77;24.65
10700;BME280;5401;41.986;21.452;2022-08-11T12:08:41;98203.13;;;38.83;24.85
10700;BME280;5401;41.986;21.452;2022-08-11T12:11:11;98192.72;;;38.84;24.72
10700;BME280;5401;41.986;21.452;2022-08-11T12:13:59;98190.72;;;38.81;24.82
10700;BME280;5401;41.986;21.452;2022-08-11T12:16:28;98200.69;;;38.78;24.87
10700;BME280;5401;41.986;21.452;2022-08-11T12:18:58;98190.72;;;38.77;25.01
10700;BME280;5401;41.986;21.452;2022-08-11T12:21:27;98189.47;;;38.75;24.73
10700;BME280;5401;41.986;21.452;2022-08-11T12:23:56;98184.69;;;38.68;24.91
10700;BME280;5401;41.986;21.452;2022-08-11T12:26:43;98187.88;;;38.63;24.68
10700;BME280;5401;41.986;21.452;2022-08-11T12:29:29;98173.06;;;38.63;25.04
10700;BME280;5401;41.986;21.452;2022-08-11T12:31:57;98175.03;;;38.52;24.97
10700;BME280;5401;41.986;21.452;2022-08-11T12:34:26;98171.44;;;38.52;24.79
10700;BME280;5401;41.986;21.452;2022-08-11T12:36:56;98175.84;;;38.59;24.77
10700;BME280;5401;41.986;21.452;2022-08-11T12:39:27;98170.28;;;38.73;24.75
10700;BME280;5401;41.986;21.452;2022-08-11T12:42:22;98167.47;;;38.63;24.72
10700;BME280;5401;41.986;21.452;2022-08-11T12:45:10;98166.66;;;38.52;24.63
10700;BME280;5401;41.986;21.452;2022-08-11T12:48:00;98160.28;;;38.58;24.71
10700;BME280;5401;41.986;21.452;2022-08-11T12:50:50;98155.03;;;38.33;24.52
10700;BME280;5401;41.986;21.452;2022-08-11T12:53:40;98149.38;;;38.12;25.03
10700;BME280;5401;41.986;21.452;2022-08-11T12:56:10;98156.97;;;38.19;25.09
10700;BME280;5401;41.986;21.452;2022-08-11T12:58:58;98143.41;;;38.31;24.80
10700;BME280;5401;41.986;21.452;2022-08-11T13:01:44;98143.41;;;38.31;24.75
10700;BME280;5401;41.986;21.452;2022-08-11T13:04:30;98132.16;;;38.10;24.95
10700;BME280;5401;41.986;21.452;2022-08-11T13:07:15;98131.69;;;37.91;24.89
10700;BME280;5401;41.986;21.452;2022-08-11T13:09:44;98130.81;;;37.77;24.71
10700;BME280;5401;41.986;21.452;2022-08-11T13:12:13;98126.34;;;37.58;25.26
10700;BME280;5401;41.986;21.452;2022-08-11T13:15:00;98133.00;;;37.37;24.91
10700;BME280;5401;41.986;21.452;2022-08-11T13:17:29;98129.94;;;36.99;25.40
10700;BME280;5401;41.986;21.452;2022-08-11T13:20:00;98127.00;;;36.81;25.67
10700;BME280;5401;41.986;21.452;2022-08-11T13:22:29;98134.19;;;36.79;25.70
10700;BME280;5401;41.986;21.452;2022-08-11T13:24:57;98134.25;;;36.89;25.92
10700;BME280;5401;41.986;21.452;2022-08-11T13:27:25;98129.13;;;36.98;25.12
10700;BME280;5401;41.986;21.452;2022-08-11T13:29:53;98125.69;;;37.15;25.02
10700;BME280;5401;41.986;21.452;2022-08-11T13:32:44;98120.59;;;37.27;25.30
10700;BME280;5401;41.986;21.452;2022-08-11T13:35:13;98117.88;;;37.41;25.16
10700;BME280;5401;41.986;21.452;2022-08-11T13:37:44;98119.47;;;37.42;25.38
10700;BME280;5401;41.986;21.452;2022-08-11T13:40:13;98117.06;;;37.44;25.30
10700;BME280;5401;41.986;21.452;2022-08-11T13:42:43;98117.88;;;37.45;25.20
10700;BME280;5401;41.986;21.452;2022-08-11T13:45:11;98116.16;;;37.26;25.06
10700;BME280;5401;41.986;21.452;2022-08-11T13:47:39;98118.94;;;37.19;25.12
10700;BME280;5401;41.986;21.452;2022-08-11T13:50:09;98123.25;;;37.10;25.29
10700;BME280;5401;41.986;21.452;2022-08-11T13:52:40;98125.16;;;36.99;25.40
10700;BME280;5401;41.986;21.452;2022-08-11T13:55:18;98121.88;;;36.90;25.73
10700;BME280;5401;41.986;21.452;2022-08-11T13:57:50;98110.69;;;36.83;25.47
10700;BME280;5401;41.986;21.452;2022-08-11T14:00:19;98110.19;;;36.71;25.62
10700;BME280;5401;41.986;21.452;2022-08-11T14:02:49;98110.41;;;36.56;25.70
10700;BME280;5401;41.986;21.452;2022-08-11T14:05:24;98116.50;;;36.61;25.67
10700;BME280;5401;41.986;21.452;2022-08-11T14:07:58;98105.44;;;36.75;25.33
10700;BME280;5401;41.986;21.452;2022-08-11T14:10:28;98108.34;;;36.89;25.32
10700;BME280;5401;41.986;21.452;2022-08-11T14:13:00;98095.63;;;36.98;25.52
10700;BME280;5401;41.986;21.452;2022-08-11T14:15:57;98111.56;;;36.98;25.58
10700;BME280;5401;41.986;21.452;2022-08-11T14:18:29;98106.13;;;37.12;25.44
10700;BME280;5401;41.986;21.452;2022-08-11T14:21:00;98103.00;;;37.27;25.29
10700;BME280;5401;41.986;21.452;2022-08-11T14:23:58;98118.91;;;37.16;25.32
10700;BME280;5401;41.986;21.452;2022-08-11T14:26:28;98097.16;;;36.89;25.71
10700;BME280;5401;41.986;21.452;2022-08-11T14:28:59;98109.03;;;36.75;25.42
10700;BME280;5401;41.986;21.452;2022-08-11T14:31:29;98106.53;;;36.64;25.71
10700;BME280;5401;41.986;21.452;2022-08-11T14:34:00;98105.75;;;36.63;26.08
10700;BME280;5401;41.986;21.452;2022-08-11T14:36:33;98109.31;;;36.64;26.03
10700;BME280;5401;41.986;21.452;2022-08-11T14:39:04;98105.63;;;36.53;25.75
10700;BME280;5401;41.986;21.452;2022-08-11T14:41:33;98104.31;;;36.40;25.75
10700;BME280;5401;41.986;21.452;2022-08-11T14:44:19;98099.38;;;36.23;25.88
10700;BME280;5401;41.986;21.452;2022-08-11T14:47:05;98100.72;;;36.03;26.03
10700;BME280;5401;41.986;21.452;2022-08-11T14:49:35;98099.41;;;35.91;26.04
10700;BME280;5401;41.986;21.452;2022-08-11T14:52:08;98098.94;;;35.85;26.39
10700;BME280;5401;41.986;21.452;2022-08-11T14:54:36;98088.94;;;35.81;26.01
10700;BME280;5401;41.986;21.452;2022-08-11T14:57:22;98084.84;;;35.71;26.12
10700;BME280;5401;41.986;21.452;2022-08-11T14:59:54;98091.50;;;35.64;26.54